sensor_id;sensor_type;location;lat;lon;timestamp;P1;durP1;ratioP1;P2;durP2;ratioP2
72198;SDS011;60103;51.014;16.992;2022-12-29T00:00:33;8.10;;;2.30;;
72198;SDS011;60103;51.014;16.992;2022-12-29T00:03:19;7.10;;;1.70;;
72198;SDS011;60103;51.014;16.992;2022-12-29T00:05:53;6.60;;;1.80;;
72198;SDS011;60103;51.014;16.992;2022-12-29T00:08:25;6.90;;;1.90;;
72198;SDS011;60103;51.014;16.992;2022-12-29T00:11:10;8.10;;;1.70;;
72198;SDS011;60103;51.014;16.992;2022-12-29T00:13:41;6.30;;;1.90;;
72198;SDS011;60103;51.014;16.992;2022-12-29T00:16:28;7.80;;;1.90;;
72198;SDS011;60103;51.014;16.992;2022-12-29T00:18:58;6.90;;;1.90;;
72198;SDS011;60103;51.014;16.992;2022-12-29T00:21:27;7.70;;;2.20;;
72198;SDS011;60103;51.014;16.992;2022-12-29T00:24:16;7.40;;;2.40;;
72198;SDS011;60103;51.014;16.992;2022-12-29T00:29:51;7.90;;;2.50;;
72198;SDS011;60103;51.014;16.992;2022-12-29T00:32:40;8.80;;;2.30;;
72198;SDS011;60103;51.014;16.992;2022-12-29T00:35:28;6.70;;;1.90;;
72198;SDS011;60103;51.014;16.992;2022-12-29T00:38:04;7.90;;;1.90;;
72198;SDS011;60103;51.014;16.992;2022-12-29T00:40:52;8.10;;;2.20;;
72198;SDS011;60103;51.014;16.992;2022-12-29T00:43:39;7.40;;;1.90;;
72198;SDS011;60103;51.014;16.992;2022-12-29T00:46:27;6.60;;;2.00;;
72198;SDS011;60103;51.014;16.992;2022-12-29T00:48:56;6.90;;;1.80;;
72198;SDS011;60103;51.014;16.992;2022-12-29T00:51:45;6.30;;;1.90;;
72198;SDS011;60103;51.014;16.992;2022-12-29T00:54:14;7.90;;;1.90;;
72198;SDS011;60103;51.014;16.992;2022-12-29T00:56:48;6.50;;;1.70;;
72198;SDS011;60103;51.014;16.992;2022-12-29T00:59:18;6.20;;;1.80;;
72198;SDS011;60103;51.014;16.992;2022-12-29T01:01:47;6.50;;;1.70;;
72198;SDS011;60103;51.014;16.992;2022-12-29T01:04:16;7.30;;;2.40;;
72198;SDS011;60103;51.014;16.992;2022-12-29T01:06:45;7.50;;;1.90;;
72198;SDS011;60103;51.014;16.992;2022-12-29T01:09:16;6.30;;;1.80;;
72198;SDS011;60103;51.014;16.992;2022-12-29T01:12:04;6.40;;;2.10;;
72198;SDS011;60103;51.014;16.992;2022-12-29T01:14:34;7.00;;;1.60;;
72198;SDS011;60103;51.014;16.992;2022-12-29T01:17:04;6.80;;;2.00;;
72198;SDS011;60103;51.014;16.992;2022-12-29T01:19:34;7.00;;;1.80;;
72198;SDS011;60103;51.014;16.992;2022-12-29T01:22:02;5.80;;;1.60;;
72198;SDS011;60103;51.014;16.992;2022-12-29T01:24:31;5.60;;;1.60;;
72198;SDS011;60103;51.014;16.992;2022-12-29T01:27:00;7.60;;;1.70;;
72198;SDS011;60103;51.014;16.992;2022-12-29T01:29:29;6.00;;;1.60;;
72198;SDS011;60103;51.014;16.992;2022-12-29T01:31:58;6.40;;;1.50;;
72198;SDS011;60103;51.014;16.992;2022-12-29T01:34:27;5.20;;;1.70;;
72198;SDS011;60103;51.014;16.992;2022-12-29T01:36:57;7.20;;;2.00;;
72198;SDS011;60103;51.014;16.992;2022-12-29T01:39:25;5.50;;;1.60;;
72198;SDS011;60103;51.014;16.992;2022-12-29T01:41:54;6.60;;;1.80;;
72198;SDS011;60103;51.014;16.992;2022-12-29T01:47:34;5.10;;;1.40;;
72198;SDS011;60103;51.014;16.992;2022-12-29T01:50:08;4.40;;;1.40;;
72198;SDS011;60103;51.014;16.992;2022-12-29T01:52:42;5.10;;;1.30;;
72198;SDS011;60103;51.014;16.992;2022-12-29T01:55:17;6.80;;;1.50;;
72198;SDS011;60103;51.014;16.992;2022-12-29T01:57:47;6.00;;;1.50;;
72198;SDS011;60103;51.014;16.992;2022-12-29T02:00:18;5.80;;;1.80;;
72198;SDS011;60103;51.014;16.992;2022-12-29T02:02:48;5.60;;;1.40;;
72198;SDS011;60103;51.014;16.992;2022-12-29T02:05:25;6.90;;;1.70;;
72198;SDS011;60103;51.014;16.992;2022-12-29T02:07:57;6.20;;;1.60;;
72198;SDS011;60103;51.014;16.992;2022-12-29T02:10:26;5.40;;;1.50;;
72198;SDS011;60103;51.014;16.992;2022-12-29T02:12:56;4.90;;;1.50;;
72198;SDS011;60103;51.014;16.992;2022-12-29T02:15:29;8.20;;;1.90;;
72198;SDS011;60103;51.014;16.992;2022-12-29T02:18:25;6.20;;;1.60;;
72198;SDS011;60103;51.014;16.992;2022-12-29T02:38:03;6.80;;;2.10;;
72198;SDS011;60103;51.014;16.992;2022-12-29T02:40:46;7.30;;;2.00;;
72198;SDS011;60103;51.014;16.992;2022-12-29T02:46:26;6.90;;;1.90;;
72198;SDS011;60103;51.014;16.992;2022-12-29T02:51:35;7.00;;;1.70;;
72198;SDS011;60103;51.014;16.992;2022-12-29T02:54:07;6.10;;;1.80;;
72198;SDS011;60103;51.014;16.992;2022-12-29T02:56:54;6.50;;;1.80;;
72198;SDS011;60103;51.014;16.992;2022-12-29T02:59:23;6.20;;;1.90;;
72198;SDS011;60103;51.014;16.992;2022-12-29T03:08:16;5.80;;;1.60;;
72198;SDS011;60103;51.014;16.992;2022-12-29T03:10:54;6.40;;;1.90;;
72198;SDS011;60103;51.014;16.992;2022-12-29T03:13:35;8.10;;;1.80;;
72198;SDS011;60103;51.014;16.992;2022-12-29T03:16:34;5.40;;;1.40;;
72198;SDS011;60103;51.014;16.992;2022-12-29T03:19:23;6.30;;;1.70;;
72198;SDS011;60103;51.014;16.992;2022-12-29T03:22:02;7.30;;;1.90;;
72198;SDS011;60103;51.014;16.992;2022-12-29T03:25:01;6.70;;;2.00;;
72198;SDS011;60103;51.014;16.992;2022-12-29T03:27:48;6.50;;;2.00;;
72198;SDS011;60103;51.014;16.992;2022-12-29T03:30:19;5.50;;;1.50;;
72198;SDS011;60103;51.014;16.992;2022-12-29T03:32:54;5.90;;;2.00;;
72198;SDS011;60103;51.014;16.992;2022-12-29T03:35:27;5.60;;;1.70;;
72198;SDS011;60103;51.014;16.992;2022-12-29T03:40:37;5.10;;;1.60;;
72198;SDS011;60103;51.014;16.992;2022-12-29T03:43:07;5.50;;;1.40;;
72198;SDS011;60103;51.014;16.992;2022-12-29T03:45:35;5.50;;;1.70;;
72198;SDS011;60103;51.014;16.992;2022-12-29T03:48:04;6.30;;;2.00;;
72198;SDS011;60103;51.014;16.992;2022-12-29T03:50:33;6.10;;;2.00;;
72198;SDS011;60103;51.014;16.992;2022-12-29T03:53:03;5.60;;;1.80;;
72198;SDS011;60103;51.014;16.992;2022-12-29T03:55:31;4.90;;;1.60;;
72198;SDS011;60103;51.014;16.992;2022-12-29T03:58:00;6.80;;;2.10;;
72198;SDS011;60103;51.014;16.992;2022-12-29T04:00:58;6.20;;;1.30;;
72198;SDS011;60103;51.014;16.992;2022-12-29T04:03:27;7.10;;;1.70;;
72198;SDS011;60103;51.014;16.992;2022-12-29T04:05:56;5.60;;;1.80;;
72198;SDS011;60103;51.014;16.992;2022-12-29T04:08:25;6.90;;;1.90;;
72198;SDS011;60103;51.014;16.992;2022-12-29T04:10:54;6.20;;;1.80;;
72198;SDS011;60103;51.014;16.992;2022-12-29T04:13:23;6.20;;;1.80;;
72198;SDS011;60103;51.014;16.992;2022-12-29T04:15:52;6.40;;;1.90;;
72198;SDS011;60103;51.014;16.992;2022-12-29T04:18:21;5.80;;;2.00;;
72198;SDS011;60103;51.014;16.992;2022-12-29T04:20:50;5.00;;;1.60;;
72198;SDS011;60103;51.014;16.992;2022-12-29T04:23:37;4.90;;;1.50;;
72198;SDS011;60103;51.014;16.992;2022-12-29T04:26:08;5.30;;;1.50;;
72198;SDS011;60103;51.014;16.992;2022-12-29T04:28:50;6.70;;;1.90;;
72198;SDS011;60103;51.014;16.992;2022-12-29T04:31:39;5.10;;;1.60;;
72198;SDS011;60103;51.014;16.992;2022-12-29T04:34:08;7.30;;;1.70;;
72198;SDS011;60103;51.014;16.992;2022-12-29T04:36:36;6.10;;;1.50;;
72198;SDS011;60103;51.014;16.992;2022-12-29T04:39:07;5.40;;;1.80;;
72198;SDS011;60103;51.014;16.992;2022-12-29T04:41:38;7.30;;;1.80;;
72198;SDS011;60103;51.014;16.992;2022-12-29T04:44:10;6.10;;;1.80;;
72198;SDS011;60103;51.014;16.992;2022-12-29T04:46:54;4.80;;;1.60;;
72198;SDS011;60103;51.014;16.992;2022-12-29T04:49:49;6.30;;;1.90;;
72198;SDS011;60103;51.014;16.992;2022-12-29T04:52:40;7.30;;;1.60;;
72198;SDS011;60103;51.014;16.992;2022-12-29T04:55:11;5.80;;;1.70;;
72198;SDS011;60103;51.014;16.992;2022-12-29T04:57:42;5.80;;;1.90;;
72198;SDS011;60103;51.014;16.992;2022-12-29T05:00:14;5.70;;;1.60;;
72198;SDS011;60103;51.014;16.992;2022-12-29T05:02:45;5.90;;;1.90;;
72198;SDS011;60103;51.014;16.992;2022-12-29T05:05:14;5.10;;;1.30;;
72198;SDS011;60103;51.014;16.992;2022-12-29T05:07:47;5.90;;;1.70;;
72198;SDS011;60103;51.014;16.992;2022-12-29T05:10:16;5.80;;;1.70;;
72198;SDS011;60103;51.014;16.992;2022-12-29T05:12:45;8.10;;;2.20;;
72198;SDS011;60103;51.014;16.992;2022-12-29T05:15:14;5.80;;;1.60;;
72198;SDS011;60103;51.014;16.992;2022-12-29T05:17:43;7.00;;;1.90;;
72198;SDS011;60103;51.014;16.992;2022-12-29T05:20:12;7.10;;;2.20;;
72198;SDS011;60103;51.014;16.992;2022-12-29T05:22:42;6.90;;;1.90;;
72198;SDS011;60103;51.014;16.992;2022-12-29T05:25:11;7.10;;;1.80;;
72198;SDS011;60103;51.014;16.992;2022-12-29T05:28:00;7.30;;;2.30;;
72198;SDS011;60103;51.014;16.992;2022-12-29T05:30:48;6.80;;;2.40;;
72198;SDS011;60103;51.014;16.992;2022-12-29T05:33:19;6.00;;;2.10;;
72198;SDS011;60103;51.014;16.992;2022-12-29T05:35:49;7.00;;;2.50;;
72198;SDS011;60103;51.014;16.992;2022-12-29T05:38:18;6.70;;;2.10;;
72198;SDS011;60103;51.014;16.992;2022-12-29T05:40:47;8.40;;;2.40;;
72198;SDS011;60103;51.014;16.992;2022-12-29T05:43:48;7.60;;;2.60;;
72198;SDS011;60103;51.014;16.992;2022-12-29T05:46:32;6.30;;;2.00;;
72198;SDS011;60103;51.014;16.992;2022-12-29T05:49:15;7.30;;;2.40;;
72198;SDS011;60103;51.014;16.992;2022-12-29T05:52:08;6.10;;;2.10;;
72198;SDS011;60103;51.014;16.992;2022-12-29T05:54:37;8.50;;;2.50;;
72198;SDS011;60103;51.014;16.992;2022-12-29T05:57:11;6.40;;;1.80;;
72198;SDS011;60103;51.014;16.992;2022-12-29T05:59:43;7.70;;;2.10;;
72198;SDS011;60103;51.014;16.992;2022-12-29T06:02:12;6.10;;;1.80;;
72198;SDS011;60103;51.014;16.992;2022-12-29T06:04:42;7.00;;;2.40;;
72198;SDS011;60103;51.014;16.992;2022-12-29T06:07:10;7.60;;;2.30;;
72198;SDS011;60103;51.014;16.992;2022-12-29T06:09:42;8.40;;;2.70;;
72198;SDS011;60103;51.014;16.992;2022-12-29T06:12:11;8.30;;;2.20;;
72198;SDS011;60103;51.014;16.992;2022-12-29T06:14:43;8.70;;;2.60;;
72198;SDS011;60103;51.014;16.992;2022-12-29T06:17:12;8.10;;;2.80;;
72198;SDS011;60103;51.014;16.992;2022-12-29T06:19:42;7.10;;;2.30;;
72198;SDS011;60103;51.014;16.992;2022-12-29T06:22:12;7.70;;;2.30;;
72198;SDS011;60103;51.014;16.992;2022-12-29T06:24:42;6.70;;;2.50;;
72198;SDS011;60103;51.014;16.992;2022-12-29T06:27:11;7.50;;;2.50;;
72198;SDS011;60103;51.014;16.992;2022-12-29T06:29:39;8.10;;;2.70;;
72198;SDS011;60103;51.014;16.992;2022-12-29T06:32:09;7.50;;;2.20;;
72198;SDS011;60103;51.014;16.992;2022-12-29T06:34:43;6.30;;;2.00;;
72198;SDS011;60103;51.014;16.992;2022-12-29T06:37:13;8.60;;;2.30;;
72198;SDS011;60103;51.014;16.992;2022-12-29T06:39:42;8.30;;;2.50;;
72198;SDS011;60103;51.014;16.992;2022-12-29T06:42:12;8.00;;;2.40;;
72198;SDS011;60103;51.014;16.992;2022-12-29T06:45:06;8.60;;;2.50;;
72198;SDS011;60103;51.014;16.992;2022-12-29T06:47:35;6.70;;;2.00;;
72198;SDS011;60103;51.014;16.992;2022-12-29T06:50:04;7.00;;;2.30;;
72198;SDS011;60103;51.014;16.992;2022-12-29T06:52:33;7.60;;;2.50;;
72198;SDS011;60103;51.014;16.992;2022-12-29T06:55:02;8.10;;;2.50;;
72198;SDS011;60103;51.014;16.992;2022-12-29T06:57:31;8.40;;;2.20;;
72198;SDS011;60103;51.014;16.992;2022-12-29T07:00:00;10.00;;;3.00;;
72198;SDS011;60103;51.014;16.992;2022-12-29T07:02:30;9.90;;;3.00;;
72198;SDS011;60103;51.014;16.992;2022-12-29T07:04:58;9.30;;;3.20;;
72198;SDS011;60103;51.014;16.992;2022-12-29T07:07:27;7.90;;;2.80;;
72198;SDS011;60103;51.014;16.992;2022-12-29T07:09:56;10.40;;;2.80;;
72198;SDS011;60103;51.014;16.992;2022-12-29T07:12:24;8.50;;;2.60;;
72198;SDS011;60103;51.014;16.992;2022-12-29T07:14:53;8.80;;;3.10;;
72198;SDS011;60103;51.014;16.992;2022-12-29T07:17:22;9.40;;;2.60;;
72198;SDS011;60103;51.014;16.992;2022-12-29T07:19:51;8.20;;;2.70;;
72198;SDS011;60103;51.014;16.992;2022-12-29T07:22:19;9.30;;;2.90;;
72198;SDS011;60103;51.014;16.992;2022-12-29T07:24:48;8.10;;;2.60;;
72198;SDS011;60103;51.014;16.992;2022-12-29T07:27:17;9.20;;;2.70;;
72198;SDS011;60103;51.014;16.992;2022-12-29T07:29:46;8.50;;;3.10;;
72198;SDS011;60103;51.014;16.992;2022-12-29T07:32:15;7.50;;;2.50;;
72198;SDS011;60103;51.014;16.992;2022-12-29T07:34:44;10.70;;;2.60;;
72198;SDS011;60103;51.014;16.992;2022-12-29T07:37:15;9.40;;;2.90;;
72198;SDS011;60103;51.014;16.992;2022-12-29T07:39:44;8.00;;;2.80;;
72198;SDS011;60103;51.014;16.992;2022-12-29T07:42:13;9.20;;;2.80;;
72198;SDS011;60103;51.014;16.992;2022-12-29T07:44:43;8.30;;;3.00;;
72198;SDS011;60103;51.014;16.992;2022-12-29T07:47:35;7.00;;;2.20;;
72198;SDS011;60103;51.014;16.992;2022-12-29T07:50:04;8.40;;;2.30;;
72198;SDS011;60103;51.014;16.992;2022-12-29T07:52:33;7.50;;;2.70;;
72198;SDS011;60103;51.014;16.992;2022-12-29T07:55:02;8.20;;;2.80;;
72198;SDS011;60103;51.014;16.992;2022-12-29T07:57:31;7.90;;;2.80;;
72198;SDS011;60103;51.014;16.992;2022-12-29T08:00:00;9.60;;;2.90;;
72198;SDS011;60103;51.014;16.992;2022-12-29T08:02:38;7.30;;;2.50;;
72198;SDS011;60103;51.014;16.992;2022-12-29T08:05:07;8.30;;;2.70;;
72198;SDS011;60103;51.014;16.992;2022-12-29T08:07:36;8.20;;;3.10;;
72198;SDS011;60103;51.014;16.992;2022-12-29T08:10:05;7.80;;;2.60;;
72198;SDS011;60103;51.014;16.992;2022-12-29T08:12:34;9.80;;;3.40;;
72198;SDS011;60103;51.014;16.992;2022-12-29T08:15:03;9.20;;;3.50;;
72198;SDS011;60103;51.014;16.992;2022-12-29T08:17:33;8.80;;;3.10;;
72198;SDS011;60103;51.014;16.992;2022-12-29T08:20:03;8.80;;;3.20;;
72198;SDS011;60103;51.014;16.992;2022-12-29T08:22:32;7.90;;;2.70;;
72198;SDS011;60103;51.014;16.992;2022-12-29T08:25:01;10.80;;;3.40;;
72198;SDS011;60103;51.014;16.992;2022-12-29T08:27:30;8.30;;;3.00;;
72198;SDS011;60103;51.014;16.992;2022-12-29T08:29:59;8.70;;;3.00;;
72198;SDS011;60103;51.014;16.992;2022-12-29T08:32:28;8.50;;;3.00;;
72198;SDS011;60103;51.014;16.992;2022-12-29T08:34:57;8.50;;;3.00;;
72198;SDS011;60103;51.014;16.992;2022-12-29T08:37:26;8.50;;;2.90;;
72198;SDS011;60103;51.014;16.992;2022-12-29T08:39:58;8.50;;;3.30;;
72198;SDS011;60103;51.014;16.992;2022-12-29T08:42:28;9.30;;;3.50;;
72198;SDS011;60103;51.014;16.992;2022-12-29T08:44:59;9.80;;;3.20;;
72198;SDS011;60103;51.014;16.992;2022-12-29T08:47:28;8.10;;;3.10;;
72198;SDS011;60103;51.014;16.992;2022-12-29T08:49:57;8.50;;;3.00;;
72198;SDS011;60103;51.014;16.992;2022-12-29T08:52:26;8.20;;;2.90;;
72198;SDS011;60103;51.014;16.992;2022-12-29T08:54:55;11.40;;;3.10;;
72198;SDS011;60103;51.014;16.992;2022-12-29T08:57:24;9.70;;;3.10;;
72198;SDS011;60103;51.014;16.992;2022-12-29T09:00:07;11.30;;;3.50;;
72198;SDS011;60103;51.014;16.992;2022-12-29T09:02:37;11.30;;;3.10;;
72198;SDS011;60103;51.014;16.992;2022-12-29T09:05:06;10.30;;;3.10;;
72198;SDS011;60103;51.014;16.992;2022-12-29T09:07:36;9.10;;;3.30;;
72198;SDS011;60103;51.014;16.992;2022-12-29T09:10:05;8.70;;;3.30;;
72198;SDS011;60103;51.014;16.992;2022-12-29T09:12:34;8.00;;;2.90;;
72198;SDS011;60103;51.014;16.992;2022-12-29T09:15:04;7.10;;;2.50;;
72198;SDS011;60103;51.014;16.992;2022-12-29T09:17:34;7.90;;;2.70;;
72198;SDS011;60103;51.014;16.992;2022-12-29T09:20:15;9.10;;;2.80;;
72198;SDS011;60103;51.014;16.992;2022-12-29T09:22:46;8.70;;;2.60;;
72198;SDS011;60103;51.014;16.992;2022-12-29T09:25:16;9.00;;;3.20;;
72198;SDS011;60103;51.014;16.992;2022-12-29T09:27:45;8.00;;;2.60;;
72198;SDS011;60103;51.014;16.992;2022-12-29T09:30:16;8.30;;;2.50;;
72198;SDS011;60103;51.014;16.992;2022-12-29T09:32:44;10.20;;;3.10;;
72198;SDS011;60103;51.014;16.992;2022-12-29T09:35:20;8.70;;;3.20;;
72198;SDS011;60103;51.014;16.992;2022-12-29T09:37:49;8.10;;;2.80;;
72198;SDS011;60103;51.014;16.992;2022-12-29T09:40:25;9.60;;;3.20;;
72198;SDS011;60103;51.014;16.992;2022-12-29T09:43:14;8.60;;;2.60;;
72198;SDS011;60103;51.014;16.992;2022-12-29T09:48:33;10.00;;;2.70;;
72198;SDS011;60103;51.014;16.992;2022-12-29T09:51:05;9.10;;;3.10;;
72198;SDS011;60103;51.014;16.992;2022-12-29T09:53:40;9.40;;;2.60;;
72198;SDS011;60103;51.014;16.992;2022-12-29T09:56:16;7.40;;;2.60;;
72198;SDS011;60103;51.014;16.992;2022-12-29T09:59:21;7.40;;;2.10;;
72198;SDS011;60103;51.014;16.992;2022-12-29T10:05:08;8.40;;;2.50;;
72198;SDS011;60103;51.014;16.992;2022-12-29T10:10:57;6.40;;;1.80;;
72198;SDS011;60103;51.014;16.992;2022-12-29T10:16:18;6.50;;;1.90;;
72198;SDS011;60103;51.014;16.992;2022-12-29T10:19:04;6.80;;;1.80;;
72198;SDS011;60103;51.014;16.992;2022-12-29T10:22:04;6.10;;;1.80;;
72198;SDS011;60103;51.014;16.992;2022-12-29T10:24:38;8.30;;;1.70;;
72198;SDS011;60103;51.014;16.992;2022-12-29T10:27:10;7.90;;;1.60;;
72198;SDS011;60103;51.014;16.992;2022-12-29T10:29:43;7.20;;;2.00;;
72198;SDS011;60103;51.014;16.992;2022-12-29T10:35:16;6.10;;;1.80;;
72198;SDS011;60103;51.014;16.992;2022-12-29T10:43:33;8.90;;;2.00;;
72198;SDS011;60103;51.014;16.992;2022-12-29T10:46:14;7.70;;;2.00;;
72198;SDS011;60103;51.014;16.992;2022-12-29T10:48:59;9.20;;;2.90;;
72198;SDS011;60103;51.014;16.992;2022-12-29T10:51:29;7.60;;;2.40;;
72198;SDS011;60103;51.014;16.992;2022-12-29T10:54:03;7.00;;;2.40;;
72198;SDS011;60103;51.014;16.992;2022-12-29T10:57:38;8.70;;;2.80;;
72198;SDS011;60103;51.014;16.992;2022-12-29T10:59:41;7.20;;;2.40;;
72198;SDS011;60103;51.014;16.992;2022-12-29T11:04:43;8.10;;;2.30;;
72198;SDS011;60103;51.014;16.992;2022-12-29T11:07:27;7.80;;;2.10;;
72198;SDS011;60103;51.014;16.992;2022-12-29T11:10:18;7.90;;;1.80;;
72198;SDS011;60103;51.014;16.992;2022-12-29T11:13:00;6.60;;;2.00;;
72198;SDS011;60103;51.014;16.992;2022-12-29T11:15:40;7.10;;;2.30;;
72198;SDS011;60103;51.014;16.992;2022-12-29T11:18:19;7.90;;;2.30;;
72198;SDS011;60103;51.014;16.992;2022-12-29T11:20:59;8.50;;;2.80;;
72198;SDS011;60103;51.014;16.992;2022-12-29T11:23:36;8.00;;;2.60;;
72198;SDS011;60103;51.014;16.992;2022-12-29T11:28:41;7.90;;;2.10;;
72198;SDS011;60103;51.014;16.992;2022-12-29T11:31:15;6.10;;;1.90;;
72198;SDS011;60103;51.014;16.992;2022-12-29T11:33:46;8.50;;;2.20;;
72198;SDS011;60103;51.014;16.992;2022-12-29T11:36:16;10.20;;;2.70;;
72198;SDS011;60103;51.014;16.992;2022-12-29T11:38:48;9.70;;;2.50;;
72198;SDS011;60103;51.014;16.992;2022-12-29T11:41:24;7.60;;;2.50;;
72198;SDS011;60103;51.014;16.992;2022-12-29T11:43:55;9.70;;;2.70;;
72198;SDS011;60103;51.014;16.992;2022-12-29T11:46:26;8.10;;;2.30;;
72198;SDS011;60103;51.014;16.992;2022-12-29T11:50:24;8.10;;;2.60;;
72198;SDS011;60103;51.014;16.992;2022-12-29T11:53:03;8.10;;;2.90;;
72198;SDS011;60103;51.014;16.992;2022-12-29T11:55:55;8.50;;;2.70;;
72198;SDS011;60103;51.014;16.992;2022-12-29T11:58:36;8.20;;;2.50;;
72198;SDS011;60103;51.014;16.992;2022-12-29T12:01:07;8.60;;;2.70;;
72198;SDS011;60103;51.014;16.992;2022-12-29T12:05:10;9.30;;;3.00;;
72198;SDS011;60103;51.014;16.992;2022-12-29T12:08:58;9.10;;;2.50;;
72198;SDS011;60103;51.014;16.992;2022-12-29T12:11:32;8.80;;;2.40;;
72198;SDS011;60103;51.014;16.992;2022-12-29T12:14:17;7.60;;;2.90;;
72198;SDS011;60103;51.014;16.992;2022-12-29T12:17:21;8.50;;;2.50;;
72198;SDS011;60103;51.014;16.992;2022-12-29T12:20:14;8.80;;;2.30;;
72198;SDS011;60103;51.014;16.992;2022-12-29T21:40:16;12.30;;;5.00;;
72198;SDS011;60103;51.014;16.992;2022-12-29T21:42:45;17.30;;;6.50;;
72198;SDS011;60103;51.014;16.992;2022-12-29T21:45:14;16.10;;;6.00;;
72198;SDS011;60103;51.014;16.992;2022-12-29T21:47:52;13.90;;;5.30;;
72198;SDS011;60103;51.014;16.992;2022-12-29T21:50:41;14.70;;;5.60;;
72198;SDS011;60103;51.014;16.992;2022-12-29T21:53:32;11.70;;;4.40;;
72198;SDS011;60103;51.014;16.992;2022-12-29T21:56:23;14.50;;;6.60;;
72198;SDS011;60103;51.014;16.992;2022-12-29T21:58:52;13.10;;;6.00;;
72198;SDS011;60103;51.014;16.992;2022-12-29T22:01:39;13.20;;;4.90;;
72198;SDS011;60103;51.014;16.992;2022-12-29T22:04:27;15.20;;;5.80;;
72198;SDS011;60103;51.014;16.992;2022-12-29T22:07:14;15.20;;;6.10;;
72198;SDS011;60103;51.014;16.992;2022-12-29T22:10:02;16.40;;;6.30;;
72198;SDS011;60103;51.014;16.992;2022-12-29T22:12:50;14.60;;;6.10;;
72198;SDS011;60103;51.014;16.992;2022-12-29T22:15:26;16.70;;;6.60;;
72198;SDS011;60103;51.014;16.992;2022-12-29T22:17:56;13.70;;;6.10;;
72198;SDS011;60103;51.014;16.992;2022-12-29T22:20:26;16.70;;;6.10;;
72198;SDS011;60103;51.014;16.992;2022-12-29T22:22:56;15.10;;;6.00;;
72198;SDS011;60103;51.014;16.992;2022-12-29T22:25:25;15.60;;;6.20;;
72198;SDS011;60103;51.014;16.992;2022-12-29T22:27:55;14.30;;;5.60;;
72198;SDS011;60103;51.014;16.992;2022-12-29T22:30:26;12.30;;;5.10;;
72198;SDS011;60103;51.014;16.992;2022-12-29T22:32:55;13.70;;;4.90;;
72198;SDS011;60103;51.014;16.992;2022-12-29T22:35:25;13.60;;;5.30;;
72198;SDS011;60103;51.014;16.992;2022-12-29T22:37:54;14.50;;;5.80;;
72198;SDS011;60103;51.014;16.992;2022-12-29T22:40:24;14.00;;;5.70;;
72198;SDS011;60103;51.014;16.992;2022-12-29T22:42:53;13.80;;;5.50;;
72198;SDS011;60103;51.014;16.992;2022-12-29T22:45:21;12.60;;;5.30;;
72198;SDS011;60103;51.014;16.992;2022-12-29T22:47:50;16.00;;;6.10;;
72198;SDS011;60103;51.014;16.992;2022-12-29T22:50:19;12.50;;;5.10;;
72198;SDS011;60103;51.014;16.992;2022-12-29T22:52:49;12.10;;;5.10;;
72198;SDS011;60103;51.014;16.992;2022-12-29T22:55:18;13.20;;;5.20;;
72198;SDS011;60103;51.014;16.992;2022-12-29T22:57:48;14.70;;;5.80;;
72198;SDS011;60103;51.014;16.992;2022-12-29T23:00:17;12.30;;;4.50;;
72198;SDS011;60103;51.014;16.992;2022-12-29T23:02:46;13.50;;;6.00;;
72198;SDS011;60103;51.014;16.992;2022-12-29T23:05:15;13.30;;;5.30;;
72198;SDS011;60103;51.014;16.992;2022-12-29T23:07:45;12.40;;;5.40;;
72198;SDS011;60103;51.014;16.992;2022-12-29T23:10:14;12.60;;;5.40;;
72198;SDS011;60103;51.014;16.992;2022-12-29T23:12:43;12.80;;;4.90;;
72198;SDS011;60103;51.014;16.992;2022-12-29T23:15:11;12.20;;;5.00;;
72198;SDS011;60103;51.014;16.992;2022-12-29T23:17:40;11.40;;;4.80;;
72198;SDS011;60103;51.014;16.992;2022-12-29T23:20:09;12.20;;;5.00;;
72198;SDS011;60103;51.014;16.992;2022-12-29T23:22:38;13.20;;;4.70;;
72198;SDS011;60103;51.014;16.992;2022-12-29T23:25:07;11.90;;;4.60;;
72198;SDS011;60103;51.014;16.992;2022-12-29T23:27:36;11.60;;;4.60;;
72198;SDS011;60103;51.014;16.992;2022-12-29T23:30:05;13.70;;;5.60;;
72198;SDS011;60103;51.014;16.992;2022-12-29T23:32:35;12.50;;;5.00;;
72198;SDS011;60103;51.014;16.992;2022-12-29T23:35:04;14.20;;;5.80;;
72198;SDS011;60103;51.014;16.992;2022-12-29T23:37:33;16.00;;;6.20;;
72198;SDS011;60103;51.014;16.992;2022-12-29T23:40:01;15.40;;;6.50;;
72198;SDS011;60103;51.014;16.992;2022-12-29T23:42:31;16.60;;;7.20;;
72198;SDS011;60103;51.014;16.992;2022-12-29T23:44:59;15.70;;;6.40;;
72198;SDS011;60103;51.014;16.992;2022-12-29T23:47:28;13.70;;;6.30;;
72198;SDS011;60103;51.014;16.992;2022-12-29T23:49:57;15.40;;;6.00;;
72198;SDS011;60103;51.014;16.992;2022-12-29T23:52:25;11.40;;;4.50;;
72198;SDS011;60103;51.014;16.992;2022-12-29T23:54:54;13.60;;;5.70;;
72198;SDS011;60103;51.014;16.992;2022-12-29T23:57:23;13.10;;;4.90;;
72198;SDS011;60103;51.014;16.992;2022-12-29T23:59:52;15.10;;;6.60;;
